Time;durP1;ratioP1;P1;durP2;ratioP2;P2;SDS_P1;SDS_P2;PMS_P1;PMS_P2;Temp;Humidity;BMP_temperature;BMP_pressure;BME280_temperature;BME280_humidity;BME280_pressure;Samples;Min_cycle;Max_cycle;Signal;HPM_P1;HPM_P2
2021/01/04 00:01:31;;;;;;;4.10;2.58;;;8.10;96.70;;;;;;5056016;28;20123;-70
2021/01/04 00:04:12;;;;;;;3.65;2.00;;;8.10;96.70;;;;;;5060635;28;20135;-70
2021/01/04 00:07:01;;;;;;;2.35;1.60;;;8.00;96.70;;;;;;5057982;28;20469;-70
2021/01/04 00:09:45;;;;;;;2.45;1.90;;;8.00;96.70;;;;;;5068408;28;20453;-70
2021/01/04 00:12:17;;;;;;;2.80;1.83;;;8.00;96.70;;;;;;5063253;28;20119;-70
2021/01/04 00:14:56;;;;;;;2.47;1.70;;;7.90;96.70;;;;;;5048284;28;20047;-70
2021/01/04 00:17:36;;;;;;;2.15;1.70;;;8.00;96.70;;;;;;5065409;28;20395;-71
2021/01/04 00:20:14;;;;;;;2.33;1.48;;;7.90;96.70;;;;;;5058226;28;20581;-71
2021/01/04 00:22:46;;;;;;;2.38;1.77;;;7.90;96.70;;;;;;5061713;28;20135;-70
2021/01/04 00:25:19;;;;;;;2.17;1.73;;;7.90;96.70;;;;;;5059539;28;20090;-70
2021/01/04 00:27:52;;;;;;;1.80;1.50;;;7.90;96.70;;;;;;5064373;28;20072;-70
2021/01/04 00:30:30;;;;;;;2.33;1.60;;;7.90;96.70;;;;;;5060928;28;20124;-70
2021/01/04 00:33:04;;;;;;;1.85;1.58;;;7.90;96.70;;;;;;5060912;28;20123;-71
2021/01/04 00:35:32;;;;;;;2.05;1.58;;;7.90;96.70;;;;;;5061307;28;20056;-70
2021/01/04 00:38:17;;;;;;;1.90;1.70;;;7.90;96.70;;;;;;5058959;28;20032;-71
2021/01/04 00:40:57;;;;;;;2.08;1.60;;;7.90;96.70;;;;;;5056478;28;20041;-70
2021/01/04 00:43:33;;;;;;;2.25;1.80;;;7.90;96.70;;;;;;5068855;28;20044;-70
2021/01/04 00:46:00;;;;;;;2.60;1.65;;;7.90;96.70;;;;;;5059371;28;20124;-70
2021/01/04 00:48:36;;;;;;;2.55;1.60;;;7.90;96.70;;;;;;5061539;28;20043;-70
2021/01/04 00:51:12;;;;;;;2.67;1.80;;;7.90;96.70;;;;;;5058266;28;20067;-71
2021/01/04 00:53:42;;;;;;;3.08;1.63;;;7.90;96.70;;;;;;5056708;28;20032;-70
2021/01/04 00:56:29;;;;;;;2.60;1.60;;;7.90;96.70;;;;;;5057077;28;20132;-71
2021/01/04 00:59:07;;;;;;;2.30;1.60;;;8.00;96.70;;;;;;5053780;28;20110;-70
2021/01/04 01:01:54;;;;;;;1.90;1.60;;;7.90;96.70;;;;;;5060185;28;20037;-70
2021/01/04 01:04:31;;;;;;;2.92;1.85;;;7.90;96.70;;;;;;5059366;28;20045;-70
2021/01/04 01:07:04;;;;;;;2.10;1.63;;;7.90;96.70;;;;;;5059761;28;20076;-70
2021/01/04 01:09:36;;;;;;;3.40;2.00;;;7.90;96.70;;;;;;5051507;28;20041;-70
2021/01/04 01:12:20;;;;;;;3.20;2.20;;;7.90;96.70;;;;;;5065106;28;20506;-70
2021/01/04 01:15:07;;;;;;;2.55;1.80;;;7.90;96.70;;;;;;5047027;28;20045;-70
2021/01/04 01:17:51;;;;;;;2.22;1.50;;;7.90;96.70;;;;;;5053004;28;20048;-70
2021/01/04 01:20:21;;;;;;;2.38;1.50;;;7.90;96.70;;;;;;5055374;28;20540;-70
2021/01/04 01:22:49;;;;;;;2.08;1.20;;;7.90;96.70;;;;;;5055449;28;20048;-70
2021/01/04 01:25:19;;;;;;;2.33;1.60;;;7.90;96.70;;;;;;5059751;28;20048;-71
2021/01/04 01:28:19;;;;;;;1.58;1.38;;;7.90;96.70;;;;;;5059129;28;20043;-70
2021/01/04 01:31:04;;;;;;;1.63;1.20;;;7.90;96.70;;;;;;5054817;28;20037;-70
2021/01/04 01:33:51;;;;;;;1.63;1.30;;;7.90;96.70;;;;;;5054147;28;20058;-70
2021/01/04 01:36:31;;;;;;;2.38;1.52;;;7.80;96.70;;;;;;5058245;28;20045;-70
2021/01/04 01:39:28;;;;;;;1.85;1.38;;;7.80;96.70;;;;;;5057528;28;20040;-70
2021/01/04 01:42:24;;;;;;;2.97;1.45;;;7.80;96.70;;;;;;5052959;28;20066;-70
2021/01/04 01:45:07;;;;;;;2.03;1.42;;;7.80;96.70;;;;;;5054127;28;20049;-69
2021/01/04 01:47:44;;;;;;;1.58;1.15;;;7.80;96.70;;;;;;5059544;28;20086;-70
2021/01/04 01:50:22;;;;;;;1.80;1.45;;;7.90;96.70;;;;;;5058180;28;20041;-71
2021/01/04 01:52:59;;;;;;;2.58;1.65;;;7.90;96.70;;;;;;5059477;28;20140;-70
2021/01/04 01:55:35;;;;;;;2.30;1.90;;;7.90;96.70;;;;;;5056360;28;20049;-70
2021/01/04 01:58:18;;;;;;;;;;;7.90;96.70;;;;;;5055315;28;20046;-70
2021/01/04 02:00:55;;;;;;;2.25;1.50;;;7.80;96.70;;;;;;5058382;28;20374;-70
2021/01/04 02:03:28;;;;;;;1.52;1.13;;;7.90;96.70;;;;;;5060689;28;20140;-71
2021/01/04 02:06:11;;;;;;;1.48;1.08;;;7.90;96.70;;;;;;5055904;28;20063;-70
2021/01/04 02:08:42;;;;;;;1.58;1.00;;;7.90;96.70;;;;;;5060256;28;20130;-69
2021/01/04 02:11:17;;;;;;;1.85;1.20;;;7.80;96.70;;;;;;5057743;28;20722;-71
2021/01/04 02:13:57;;;;;;;1.63;1.08;;;7.80;96.70;;;;;;5059135;28;20448;-70
2021/01/04 02:16:30;;;;;;;1.20;0.93;;;7.80;96.70;;;;;;5058477;28;20044;-70
2021/01/04 02:19:09;;;;;;;1.52;1.00;;;7.80;96.70;;;;;;5070508;28;20044;-70
2021/01/04 02:22:06;;;;;;;1.55;1.20;;;7.80;96.70;;;;;;5057769;28;20561;-70
2021/01/04 02:24:34;;;;;;;1.40;1.00;;;7.80;96.70;;;;;;5059196;28;20101;-74
2021/01/04 02:27:07;;;;;;;1.83;1.27;;;7.80;96.70;;;;;;5055489;28;20033;-74
2021/01/04 02:29:35;;;;;;;2.03;1.10;;;7.80;96.70;;;;;;5057323;28;20127;-74
2021/01/04 02:32:05;;;;;;;1.95;1.40;;;7.70;96.70;;;;;;5064036;28;20086;-74
2021/01/04 02:34:35;;;;;;;2.20;1.63;;;7.70;96.70;;;;;;5055210;28;20060;-74
2021/01/04 02:37:03;;;;;;;2.30;1.63;;;7.70;96.70;;;;;;5059257;28;20132;-74
2021/01/04 02:39:37;;;;;;;4.22;1.60;;;7.70;96.70;;;;;;5056184;28;20040;-74
2021/01/04 02:42:08;;;;;;;2.08;1.65;;;7.60;96.70;;;;;;5060908;28;20115;-74
2021/01/04 02:44:38;;;;;;;2.10;1.42;;;7.60;96.70;;;;;;5058539;28;20387;-75
2021/01/04 02:47:35;;;;;;;1.67;1.30;;;7.70;96.70;;;;;;5058243;28;20145;-74
2021/01/04 02:50:13;;;;;;;1.58;1.25;;;7.70;96.70;;;;;;5053333;28;20044;-74
2021/01/04 02:53:01;;;;;;;2.38;1.65;;;7.70;96.70;;;;;;5051282;28;20047;-74
2021/01/04 02:55:52;;;;;;;1.73;1.30;;;7.70;96.70;;;;;;5057602;28;20045;-74
2021/01/04 02:58:29;;;;;;;1.85;1.27;;;7.70;96.70;;;;;;5060326;28;20502;-74
2021/01/04 03:01:03;;;;;;;1.92;1.50;;;7.70;96.70;;;;;;5060300;28;20353;-74
2021/01/04 03:03:33;;;;;;;1.23;1.10;;;7.70;96.70;;;;;;5047541;28;20048;-74
2021/01/04 03:06:02;;;;;;;1.83;1.38;;;7.70;96.70;;;;;;5061632;28;20049;-74
2021/01/04 03:08:29;;;;;;;2.92;1.30;;;7.70;96.70;;;;;;5065757;28;20497;-74
2021/01/04 03:10:58;;;;;;;1.73;1.10;;;7.70;96.70;;;;;;5069042;28;20089;-74
2021/01/04 03:13:38;;;;;;;1.83;0.75;;;7.80;96.70;;;;;;5062543;28;20050;-74
2021/01/04 03:16:12;;;;;;;1.48;1.05;;;7.80;96.70;;;;;;5062188;28;20549;-74
2021/01/04 03:18:48;;;;;;;1.58;1.00;;;7.80;96.70;;;;;;5060043;28;20567;-74
2021/01/04 03:21:17;;;;;;;1.25;0.95;;;7.80;96.70;;;;;;5053130;28;20036;-74
2021/01/04 03:23:47;;;;;;;1.92;1.10;;;7.80;96.70;;;;;;5061825;28;20036;-74
2021/01/04 03:26:19;;;;;;;2.60;1.00;;;7.80;96.70;;;;;;5064690;28;20048;-74
2021/01/04 03:28:47;;;;;;;1.20;1.00;;;7.80;96.70;;;;;;5061052;28;20609;-75
2021/01/04 03:31:14;;;;;;;1.50;1.10;;;7.80;96.70;;;;;;5060859;28;20501;-74
2021/01/04 03:33:41;;;;;;;1.50;0.88;;;7.80;96.70;;;;;;5062799;28;20071;-74
2021/01/04 03:36:09;;;;;;;1.42;0.90;;;7.90;96.70;;;;;;5061990;28;20052;-74
2021/01/04 03:38:36;;;;;;;1.80;1.30;;;7.80;96.70;;;;;;5066056;28;20043;-74
2021/01/04 03:41:04;;;;;;;1.23;0.93;;;7.70;96.70;;;;;;5046484;28;20029;-74
2021/01/04 03:43:34;;;;;;;1.73;1.10;;;7.70;96.70;;;;;;5052831;28;20083;-74
2021/01/04 03:46:01;;;;;;;1.95;1.38;;;7.60;96.70;;;;;;5061282;28;20090;-70
2021/01/04 03:48:29;;;;;;;1.50;1.30;;;7.50;96.70;;;;;;5062997;28;20077;-71
2021/01/04 03:50:56;;;;;;;1.83;1.10;;;7.60;96.70;;;;;;5060396;28;20044;-70
2021/01/04 03:53:23;;;;;;;2.83;1.40;;;7.50;96.70;;;;;;5038869;28;20036;-70
2021/01/04 03:55:50;;;;;;;2.05;1.40;;;7.40;96.70;;;;;;5058595;28;20051;-70
2021/01/04 03:58:17;;;;;;;1.48;1.30;;;7.40;96.70;;;;;;5059356;28;20534;-71
2021/01/04 04:00:45;;;;;;;3.45;1.77;;;7.40;96.70;;;;;;5060087;28;20068;-70
2021/01/04 04:03:12;;;;;;;2.53;1.70;;;7.40;96.70;;;;;;5062873;28;20489;-70
2021/01/04 04:05:40;;;;;;;2.00;1.50;;;7.40;96.70;;;;;;5070056;28;20294;-70
2021/01/04 04:08:07;;;;;;;2.55;1.25;;;7.40;96.70;;;;;;5060997;28;20032;-70
2021/01/04 04:10:34;;;;;;;1.65;1.17;;;7.40;96.70;;;;;;5060579;28;20492;-70
2021/01/04 04:13:02;;;;;;;3.75;1.50;;;7.40;96.70;;;;;;5056869;28;20486;-71
2021/01/04 04:15:29;;;;;;;2.42;1.42;;;7.50;96.70;;;;;;5056326;28;20440;-71
2021/01/04 04:17:58;;;;;;;2.15;1.20;;;7.50;96.70;;;;;;5060609;28;20041;-74
2021/01/04 04:20:27;;;;;;;2.47;1.20;;;7.50;96.70;;;;;;5063021;28;20064;-71
2021/01/04 04:22:55;;;;;;;2.25;1.20;;;7.50;96.70;;;;;;5060535;28;20035;-71
2021/01/04 04:25:24;;;;;;;1.40;1.30;;;7.50;96.70;;;;;;5058957;28;20072;-71
2021/01/04 04:27:52;;;;;;;1.23;1.08;;;7.50;96.70;;;;;;5062058;28;20044;-71
2021/01/04 04:30:23;;;;;;;3.67;1.10;;;7.50;96.70;;;;;;5058419;28;20051;-74
2021/01/04 04:32:53;;;;;;;2.50;1.20;;;7.50;96.70;;;;;;5040986;28;20044;-75
2021/01/04 04:35:21;;;;;;;1.45;1.10;;;7.50;96.70;;;;;;5063243;28;20127;-75
2021/01/04 04:37:48;;;;;;;1.60;1.00;;;7.60;96.70;;;;;;5058968;28;20624;-75
2021/01/04 04:40:18;;;;;;;1.98;1.30;;;7.60;96.70;;;;;;5066824;28;20048;-75
2021/01/04 04:42:46;;;;;;;1.25;1.15;;;7.60;96.70;;;;;;5059425;28;20496;-75
2021/01/04 04:45:17;;;;;;;1.98;1.10;;;7.60;96.70;;;;;;5062570;28;20471;-75
2021/01/04 04:48:02;;;;;;;1.73;1.00;;;7.60;96.70;;;;;;5064029;28;20040;-75
2021/01/04 04:50:50;;;;;;;1.40;1.15;;;7.70;96.70;;;;;;5064304;28;20040;-75
2021/01/04 04:53:32;;;;;;;1.70;1.17;;;7.60;96.70;;;;;;5062382;28;20565;-75
2021/01/04 04:56:12;;;;;;;2.22;1.10;;;7.60;96.70;;;;;;5073325;28;20036;-75
2021/01/04 04:58:46;;;;;;;3.58;1.20;;;7.50;96.70;;;;;;5056569;28;20470;-75
2021/01/04 05:01:23;;;;;;;1.60;1.25;;;7.60;96.70;;;;;;5063072;28;20046;-75
2021/01/04 05:04:10;;;;;;;1.77;1.10;;;7.60;96.70;;;;;;5063224;28;20409;-75
2021/01/04 05:06:45;;;;;;;1.88;1.30;;;7.70;96.70;;;;;;5052910;28;20036;-75
2021/01/04 05:09:28;;;;;;;1.20;1.08;;;7.60;96.70;;;;;;5052080;28;20563;-75
2021/01/04 05:12:09;;;;;;;1.10;1.00;;;7.60;96.70;;;;;;5075212;28;20096;-74
2021/01/04 05:14:50;;;;;;;1.88;1.00;;;7.60;96.70;;;;;;5062445;28;20555;-75
2021/01/04 05:17:42;;;;;;;1.40;0.88;;;7.60;96.70;;;;;;5062358;28;20036;-75
2021/01/04 05:20:21;;;;;;;1.65;0.93;;;7.60;96.70;;;;;;5052725;28;20328;-75
2021/01/04 05:23:10;;;;;;;1.33;1.00;;;7.60;96.70;;;;;;5059740;28;20051;-75
2021/01/04 05:26:03;;;;;;;1.50;1.02;;;7.60;96.70;;;;;;5059376;28;20079;-75
2021/01/04 05:28:47;;;;;;;3.22;1.35;;;7.60;96.70;;;;;;5058702;28;20048;-75
2021/01/04 05:31:36;;;;;;;1.50;1.10;;;7.60;96.70;;;;;;5051538;28;20458;-75
2021/01/04 05:34:09;;;;;;;2.85;1.23;;;7.60;96.70;;;;;;5063339;28;20053;-75
2021/01/04 05:36:55;;;;;;;2.53;1.20;;;7.60;96.70;;;;;;5061120;28;20101;-75
2021/01/04 05:39:35;;;;;;;1.33;1.15;;;7.50;96.70;;;;;;5061623;28;20090;-75
2021/01/04 05:42:22;;;;;;;1.52;1.13;;;7.60;96.70;;;;;;5067608;28;20406;-75
2021/01/04 05:45:04;;;;;;;1.08;0.88;;;7.50;96.70;;;;;;5059101;28;20059;-75
2021/01/04 05:47:38;;;;;;;1.30;1.10;;;7.50;96.70;;;;;;5062208;28;20104;-75
2021/01/04 05:50:18;;;;;;;1.50;1.05;;;7.50;96.70;;;;;;5067584;28;20033;-75
2021/01/04 05:52:46;;;;;;;1.27;0.82;;;7.50;96.70;;;;;;5066563;28;20135;-75
2021/01/04 05:55:15;;;;;;;0.90;0.68;;;7.40;96.70;;;;;;5066173;28;20051;-75
2021/01/04 05:57:44;;;;;;;1.20;0.90;;;7.40;96.70;;;;;;5057090;28;20041;-75
2021/01/04 06:00:13;;;;;;;1.98;0.70;;;7.40;96.70;;;;;;5058613;28;20045;-75
2021/01/04 06:02:40;;;;;;;2.95;1.10;;;7.40;96.70;;;;;;5061035;28;20105;-75
2021/01/04 06:05:11;;;;;;;2.42;0.70;;;7.40;96.70;;;;;;5062009;28;20333;-75
2021/01/04 06:07:40;;;;;;;1.15;0.80;;;7.40;96.70;;;;;;5057598;28;20044;-75
2021/01/04 06:10:09;;;;;;;1.23;0.70;;;7.40;96.70;;;;;;5059451;28;20040;-75
2021/01/04 06:12:40;;;;;;;1.10;0.75;;;7.40;96.70;;;;;;5047634;28;20051;-75
2021/01/04 06:15:09;;;;;;;1.40;1.15;;;7.40;96.70;;;;;;5062723;28;20375;-75
2021/01/04 06:17:39;;;;;;;1.08;0.75;;;7.40;96.70;;;;;;5056792;28;20038;-75
2021/01/04 06:20:18;;;;;;;1.17;0.90;;;7.40;96.70;;;;;;5060284;28;20444;-75
2021/01/04 06:22:48;;;;;;;1.23;0.85;;;7.40;96.70;;;;;;5045756;28;20121;-75
2021/01/04 06:25:18;;;;;;;1.77;1.10;;;7.50;96.70;;;;;;5059187;28;20506;-75
2021/01/04 06:27:47;;;;;;;1.65;1.30;;;7.50;96.70;;;;;;5056596;28;20402;-75
2021/01/04 06:30:29;;;;;;;1.20;0.80;;;7.40;96.70;;;;;;5059200;28;20041;-75
2021/01/04 06:33:05;;;;;;;2.10;1.35;;;7.40;96.70;;;;;;5042586;28;20044;-75
2021/01/04 06:35:33;;;;;;;1.60;1.20;;;7.30;96.70;;;;;;5063715;28;20053;-74
2021/01/04 06:38:12;;;;;;;2.10;1.40;;;7.30;96.70;;;;;;5065834;28;20055;-75
2021/01/04 06:40:42;;;;;;;1.67;1.15;;;7.30;96.70;;;;;;5066713;28;20035;-74
2021/01/04 06:43:18;;;;;;;1.10;1.00;;;7.20;96.70;;;;;;5060057;28;20037;-75
2021/01/04 06:45:58;;;;;;;1.27;0.90;;;7.10;96.70;;;;;;5066752;28;20052;-74
2021/01/04 06:48:33;;;;;;;1.48;1.00;;;7.10;96.70;;;;;;5057838;28;20048;-74
2021/01/04 06:51:22;;;;;;;1.10;0.73;;;7.10;96.70;;;;;;5071236;28;20036;-75
2021/01/04 06:54:08;;;;;;;1.77;0.95;;;7.00;96.70;;;;;;5066453;28;20037;-75
2021/01/04 06:56:50;;;;;;;2.47;1.00;;;7.00;96.70;;;;;;5066794;28;20891;-75
2021/01/04 06:59:37;;;;;;;1.80;1.08;;;7.00;96.70;;;;;;5082620;28;20055;-76
2021/01/04 07:02:31;;;;;;;2.83;1.10;;;7.10;96.70;;;;;;5059585;28;20151;-76
2021/01/04 07:05:25;;;;;;;1.75;0.90;;;7.10;96.70;;;;;;5062659;28;20084;-76
2021/01/04 07:08:06;;;;;;;1.52;1.17;;;7.10;96.70;;;;;;5059694;28;20448;-76
2021/01/04 07:10:46;;;;;;;1.17;1.00;;;7.10;96.70;;;;;;5056516;28;20037;-76
2021/01/04 07:13:35;;;;;;;1.75;1.10;;;7.10;96.70;;;;;;5059236;28;20047;-76
2021/01/04 07:16:24;;;;;;;0.90;0.73;;;7.20;96.70;;;;;;5068343;28;20040;-71
2021/01/04 07:19:01;;;;;;;1.98;0.90;;;7.40;96.70;;;;;;5061191;28;20044;-71
2021/01/04 07:21:40;;;;;;;1.65;0.98;;;7.30;96.70;;;;;;5063621;28;20036;-75
2021/01/04 07:24:22;;;;;;;1.45;0.80;;;7.30;96.70;;;;;;5068186;28;20066;-71
2021/01/04 07:27:03;;;;;;;2.70;1.08;;;7.30;96.70;;;;;;5075456;28;20047;-70
2021/01/04 07:29:47;;;;;;;1.52;1.02;;;7.30;96.70;;;;;;5062324;28;20055;-71
2021/01/04 07:32:23;;;;;;;2.20;0.90;;;7.30;96.70;;;;;;5054421;28;20032;-70
2021/01/04 07:34:56;;;;;;;1.63;0.90;;;7.30;96.70;;;;;;5043027;28;20505;-72
2021/01/04 07:37:38;;;;;;;2.33;1.10;;;7.40;96.70;;;;;;5046491;28;20051;-71
2021/01/04 07:40:27;;;;;;;1.55;1.10;;;7.50;96.70;;;;;;5058439;28;20045;-71
2021/01/04 07:43:21;;;;;;;1.58;1.08;;;7.60;96.70;;;;;;5066307;28;20501;-71
2021/01/04 07:46:11;;;;;;;1.70;0.90;;;7.70;96.70;;;;;;5068540;28;20350;-71
2021/01/04 07:48:56;;;;;;;11.50;9.63;;;7.70;96.70;;;;;;5067030;28;20040;-71
2021/01/04 07:51:48;;;;;;;4.70;3.15;;;7.70;96.70;;;;;;5058838;28;20110;-71
2021/01/04 07:54:38;;;;;;;12.55;7.40;;;7.70;96.70;;;;;;5065131;28;20039;-71
2021/01/04 07:57:29;;;;;;;6.78;4.70;;;7.70;96.70;;;;;;5059190;28;20047;-71
2021/01/04 08:00:13;;;;;;;4.65;3.00;;;7.60;96.70;;;;;;5053817;28;20055;-71
2021/01/04 08:03:02;;;;;;;2.05;1.65;;;7.60;96.70;;;;;;5064707;28;20079;-71
2021/01/04 08:05:52;;;;;;;2.38;1.80;;;7.70;96.70;;;;;;5060650;28;20043;-71
2021/01/04 08:08:42;;;;;;;2.95;1.98;;;7.70;96.70;;;;;;5050094;28;20043;-71
2021/01/04 08:11:29;;;;;;;3.55;1.70;;;7.80;96.70;;;;;;5064320;28;20037;-71
2021/01/04 08:14:08;;;;;;;;;;;7.80;96.70;;;;;;5066812;28;20047;-71
2021/01/04 08:16:41;;;;;;;5.93;2.22;;;7.90;96.70;;;;;;5063742;28;19946;-71
2021/01/04 08:19:11;;;;;;;2.47;1.70;;;7.90;96.70;;;;;;5049999;28;20529;-73
2021/01/04 08:21:50;;;;;;;2.35;1.83;;;7.90;96.70;;;;;;5052987;28;20047;-71
2021/01/04 08:24:23;;;;;;;19.13;12.63;;;7.90;96.70;;;;;;5057693;28;20456;-71
2021/01/04 08:27:07;;;;;;;7.10;4.82;;;7.90;96.70;;;;;;5062018;28;20040;-70
2021/01/04 08:29:45;;;;;;;9.30;5.22;;;7.90;96.70;;;;;;5063055;28;20452;-71
2021/01/04 08:32:19;;;;;;;6.45;3.85;;;8.00;96.70;;;;;;5055811;28;20045;-70
2021/01/04 08:34:47;;;;;;;3.08;2.20;;;8.00;96.70;;;;;;5060769;28;20052;-71
2021/01/04 08:37:19;;;;;;;3.05;1.60;;;8.00;96.70;;;;;;5062917;28;20040;-72
2021/01/04 08:39:50;;;;;;;2.45;1.60;;;8.00;96.70;;;;;;5060888;28;20044;-71
2021/01/04 08:42:31;;;;;;;3.35;1.98;;;8.00;96.70;;;;;;5060826;28;20037;-72
2021/01/04 08:45:01;;;;;;;2.08;1.52;;;8.10;96.70;;;;;;5065271;28;20513;-71
2021/01/04 08:47:35;;;;;;;2.83;1.83;;;8.10;96.70;;;;;;5060148;28;20046;-71
2021/01/04 08:50:10;;;;;;;2.45;2.00;;;8.10;96.70;;;;;;5058415;28;20126;-71
2021/01/04 08:52:43;;;;;;;2.75;1.70;;;8.10;96.70;;;;;;5060106;28;20037;-70
2021/01/04 08:55:22;;;;;;;1.50;1.20;;;8.10;96.70;;;;;;5048606;28;20400;-71
2021/01/04 08:57:50;;;;;;;2.40;1.30;;;8.10;96.70;;;;;;5057409;28;20131;-70
2021/01/04 09:00:22;;;;;;;2.22;1.40;;;8.10;96.70;;;;;;5062263;28;20064;-70
2021/01/04 09:02:50;;;;;;;2.15;1.85;;;8.10;96.70;;;;;;5060370;28;20035;-71
2021/01/04 09:05:30;;;;;;;1.60;1.27;;;8.10;96.70;;;;;;5060111;28;20577;-71
2021/01/04 09:08:00;;;;;;;1.95;1.55;;;8.10;96.70;;;;;;5069733;28;20102;-70
2021/01/04 09:10:38;;;;;;;2.05;1.73;;;8.10;96.70;;;;;;5059998;28;20074;-71
2021/01/04 09:13:14;;;;;;;3.30;1.35;;;8.20;96.70;;;;;;5051851;28;20517;-70
2021/01/04 09:15:41;;;;;;;2.97;2.30;;;8.20;96.70;;;;;;5069815;28;20748;-71
2021/01/04 09:18:26;;;;;;;4.30;2.90;;;8.20;96.70;;;;;;5064511;28;20115;-71
2021/01/04 09:21:31;;;;;;;2.72;1.80;;;8.30;96.70;;;;;;5058682;28;20548;-73
2021/01/04 09:24:17;;;;;;;3.87;1.60;;;8.30;96.70;;;;;;5062750;28;20045;-70
2021/01/04 09:26:45;;;;;;;2.65;1.60;;;8.30;96.70;;;;;;5058712;28;20121;-70
2021/01/04 09:29:23;;;;;;;2.08;1.52;;;8.40;96.70;;;;;;5062670;28;20179;-71
2021/01/04 09:31:55;;;;;;;2.38;1.73;;;8.40;96.70;;;;;;5059785;28;20033;-70
2021/01/04 09:34:23;;;;;;;2.83;1.50;;;8.50;96.70;;;;;;5063106;28;20049;-70
2021/01/04 09:36:57;;;;;;;6.13;4.40;;;8.50;96.70;;;;;;5064075;28;20048;-71
2021/01/04 09:39:29;;;;;;;6.57;5.40;;;8.50;96.70;;;;;;5058479;28;20048;-71
2021/01/04 09:41:58;;;;;;;6.13;5.53;;;8.50;96.70;;;;;;5061317;28;20417;-70
2021/01/04 09:44:26;;;;;;;5.28;4.20;;;8.50;96.70;;;;;;5057527;28;20041;-72
2021/01/04 09:46:59;;;;;;;6.70;3.53;;;8.50;96.70;;;;;;5061230;28;20068;-71
2021/01/04 09:49:33;;;;;;;13.90;10.05;;;8.60;96.70;;;;;;5061315;28;20053;-71
2021/01/04 09:52:05;;;;;;;9.90;6.88;;;8.70;96.70;;;;;;5060348;28;20126;-71
2021/01/04 09:54:40;;;;;;;16.50;10.80;;;8.70;96.70;;;;;;5059634;28;20589;-71
2021/01/04 09:57:09;;;;;;;31.98;23.42;;;8.70;96.70;;;;;;5060822;28;20574;-71
2021/01/04 09:59:41;;;;;;;9.98;8.23;;;8.70;96.70;;;;;;5058203;28;20086;-71
2021/01/04 10:02:18;;;;;;;7.13;5.03;;;8.80;96.70;;;;;;5067340;28;20044;-70
2021/01/04 10:04:45;;;;;;;6.55;4.32;;;8.90;96.70;;;;;;5060539;28;20041;-71
2021/01/04 10:07:18;;;;;;;10.05;6.82;;;9.10;96.70;;;;;;5051756;28;20037;-70
2021/01/04 10:09:51;;;;;;;6.32;5.13;;;9.20;96.70;;;;;;5062044;28;20064;-72
2021/01/04 10:12:23;;;;;;;7.05;5.35;;;9.30;96.70;;;;;;5061716;28;20037;-70
2021/01/04 10:15:02;;;;;;;3.00;2.08;;;9.20;96.70;;;;;;5055844;28;20107;-71
2021/01/04 10:17:40;;;;;;;1.60;1.30;;;9.30;96.70;;;;;;5063091;28;20055;-72
2021/01/04 10:20:21;;;;;;;2.08;1.10;;;9.20;96.70;;;;;;5061872;28;20036;-70
2021/01/04 10:22:51;;;;;;;1.45;1.20;;;9.20;96.70;;;;;;5053883;28;20118;-71
2021/01/04 10:25:25;;;;;;;1.20;0.90;;;9.10;96.70;;;;;;5066837;28;20573;-70
2021/01/04 10:27:54;;;;;;;1.33;0.80;;;9.10;96.70;;;;;;5070167;28;20106;-71
2021/01/04 10:30:27;;;;;;;1.70;1.05;;;9.10;96.70;;;;;;5072583;28;20043;-71
2021/01/04 10:33:05;;;;;;;2.00;1.00;;;9.10;96.70;;;;;;5063889;28;20044;-70
2021/01/04 10:35:33;;;;;;;2.22;0.98;;;9.10;96.70;;;;;;5063738;28;20053;-71
2021/01/04 10:38:09;;;;;;;2.33;1.40;;;9.10;96.70;;;;;;5068209;28;20032;-72
2021/01/04 10:40:48;;;;;;;2.10;1.30;;;9.10;96.70;;;;;;5073160;28;20383;-72
2021/01/04 10:43:19;;;;;;;3.15;1.35;;;9.10;96.70;;;;;;5054444;28;20044;-71
2021/01/04 10:46:25;;;;;;;2.25;1.10;;;9.10;96.70;;;;;;5067064;28;20436;-71
2021/01/04 10:48:59;;;;;;;1.98;1.20;;;9.10;96.70;;;;;;5057793;28;20444;-71
2021/01/04 10:51:29;;;;;;;2.20;1.40;;;9.10;96.70;;;;;;5061634;28;20509;-71
2021/01/04 10:53:56;;;;;;;1.85;1.30;;;9.10;96.70;;;;;;5063893;28;20032;-71
2021/01/04 10:56:43;;;;;;;1.50;1.13;;;9.20;96.70;;;;;;5063350;28;20049;-71
2021/01/04 10:59:28;;;;;;;2.55;1.25;;;9.20;96.70;;;;;;5059814;28;20055;-72
2021/01/04 11:01:56;;;;;;;2.33;1.83;;;9.20;96.70;;;;;;5067929;28;20048;-71
2021/01/04 11:04:26;;;;;;;1.90;1.50;;;9.30;96.70;;;;;;5065171;28;20037;-71
2021/01/04 11:07:08;;;;;;;2.75;1.50;;;9.30;96.70;;;;;;5059621;28;20044;-71
2021/01/04 11:09:39;;;;;;;2.50;2.28;;;9.40;96.70;;;;;;5063667;28;20115;-70
2021/01/04 11:12:11;;;;;;;3.25;1.70;;;9.30;96.70;;;;;;5072105;28;20081;-71
2021/01/04 11:14:51;;;;;;;3.08;2.10;;;9.40;96.70;;;;;;5067166;28;20052;-72
2021/01/04 11:17:21;;;;;;;3.42;2.20;;;9.30;96.70;;;;;;5070750;28;20036;-72
2021/01/04 11:19:48;;;;;;;4.32;3.10;;;9.30;96.70;;;;;;5070198;28;20093;-73
2021/01/04 11:22:21;;;;;;;3.08;1.77;;;9.30;96.70;;;;;;5063071;28;20065;-71
2021/01/04 11:24:49;;;;;;;3.85;2.13;;;9.40;96.70;;;;;;5071648;28;20564;-72
2021/01/04 11:27:17;;;;;;;1.95;1.20;;;9.60;96.70;;;;;;5062815;28;20035;-71
2021/01/04 11:29:45;;;;;;;1.58;1.10;;;9.70;96.70;;;;;;5065221;28;20418;-71
2021/01/04 11:32:15;;;;;;;2.22;1.50;;;9.70;96.70;;;;;;5058950;28;20051;-70
2021/01/04 11:34:43;;;;;;;2.13;1.63;;;9.80;96.70;;;;;;5071493;28;20063;-71
2021/01/04 11:37:11;;;;;;;3.95;1.58;;;9.80;96.70;;;;;;5064342;28;20088;-72
2021/01/04 11:39:39;;;;;;;4.13;1.98;;;9.80;96.70;;;;;;5061221;28;20477;-72
2021/01/04 11:42:07;;;;;;;2.50;1.92;;;9.80;96.70;;;;;;5061839;28;20493;-71
2021/01/04 11:44:35;;;;;;;3.58;1.83;;;9.80;96.70;;;;;;5068775;28;20048;-70
2021/01/04 11:47:03;;;;;;;2.08;1.48;;;9.90;96.70;;;;;;5063047;28;20291;-71
2021/01/04 11:49:31;;;;;;;5.22;2.13;;;9.90;96.70;;;;;;5062213;28;20449;-71
2021/01/04 11:51:58;;;;;;;4.85;1.95;;;9.90;96.70;;;;;;5064840;28;20051;-71
2021/01/04 11:54:26;;;;;;;1.80;1.58;;;9.90;96.70;;;;;;5065127;28;20581;-71
2021/01/04 11:56:54;;;;;;;3.28;1.70;;;9.80;96.70;;;;;;5068838;28;20037;-71
2021/01/04 11:59:22;;;;;;;2.92;1.40;;;9.70;96.70;;;;;;5070060;28;20297;-70
2021/01/04 12:01:54;;;;;;;2.88;1.70;;;9.60;96.70;;;;;;5082489;28;20484;-71
2021/01/04 12:04:22;;;;;;;3.03;1.70;;;9.60;96.70;;;;;;5077801;28;20491;-70
2021/01/04 12:06:50;;;;;;;3.60;1.45;;;9.50;96.70;;;;;;5072597;28;20139;-72
2021/01/04 12:09:17;;;;;;;2.80;1.33;;;9.60;96.70;;;;;;5066064;28;20529;-71
2021/01/04 12:11:48;;;;;;;2.83;1.73;;;9.60;96.70;;;;;;5063696;28;20651;-70
2021/01/04 12:14:16;;;;;;;2.75;1.27;;;9.60;96.70;;;;;;5076169;28;20044;-71
2021/01/04 12:16:44;;;;;;;3.30;1.45;;;9.60;96.70;;;;;;5065445;28;20068;-71
2021/01/04 12:19:13;;;;;;;2.03;1.42;;;9.60;96.70;;;;;;5061184;28;20055;-71
2021/01/04 12:21:40;;;;;;;2.78;1.40;;;9.60;96.70;;;;;;5064270;28;20105;-71
2021/01/04 12:24:08;;;;;;;3.40;1.90;;;9.60;96.70;;;;;;5060631;28;20498;-70
2021/01/04 12:26:35;;;;;;;2.20;1.60;;;9.60;96.70;;;;;;5064965;28;20093;-71
2021/01/04 12:29:04;;;;;;;4.05;1.98;;;9.60;96.70;;;;;;5060839;28;20079;-71
2021/01/04 12:31:36;;;;;;;3.75;2.03;;;9.60;96.70;;;;;;5072566;28;20071;-70
2021/01/04 12:34:04;;;;;;;9.23;5.47;;;9.60;96.70;;;;;;5048194;28;20520;-71
2021/01/04 12:36:32;;;;;;;6.10;3.72;;;9.50;96.70;;;;;;5073136;28;20044;-71
2021/01/04 12:39:00;;;;;;;4.05;2.92;;;9.40;96.70;;;;;;5059331;28;20062;-72
2021/01/04 12:41:27;;;;;;;4.30;3.33;;;9.30;96.70;;;;;;5065333;28;20049;-71
2021/01/04 12:43:54;;;;;;;2.92;2.08;;;9.30;96.70;;;;;;5066176;28;20032;-71
2021/01/04 12:46:23;;;;;;;3.35;2.00;;;9.20;96.70;;;;;;5071883;28;20045;-71
2021/01/04 12:48:50;;;;;;;5.85;4.00;;;9.20;96.70;;;;;;5060105;28;20044;-71
2021/01/04 12:51:17;;;;;;;6.25;4.68;;;9.20;96.70;;;;;;5068709;28;20134;-70
2021/01/04 12:53:46;;;;;;;4.47;3.13;;;9.20;96.70;;;;;;5054816;28;20072;-71
2021/01/04 12:56:16;;;;;;;4.30;3.40;;;9.30;96.70;;;;;;5058321;28;20542;-70
2021/01/04 12:58:45;;;;;;;3.63;2.28;;;9.30;96.70;;;;;;5052413;28;20052;-71
2021/01/04 13:01:17;;;;;;;3.42;2.00;;;9.40;96.70;;;;;;5082204;28;20048;-70
2021/01/04 13:03:45;;;;;;;2.65;1.75;;;9.30;96.70;;;;;;5056959;28;20178;-70
2021/01/04 13:06:20;;;;;;;2.75;2.00;;;9.30;96.70;;;;;;5062966;28;20053;-70
2021/01/04 13:08:49;;;;;;;3.38;2.33;;;9.30;96.70;;;;;;5061203;28;20044;-70
2021/01/04 13:11:17;;;;;;;2.53;1.80;;;9.30;96.70;;;;;;5063540;28;20418;-72
2021/01/04 13:13:48;;;;;;;2.50;1.90;;;9.30;96.70;;;;;;5063809;28;20678;-70
2021/01/04 13:16:16;;;;;;;3.95;1.90;;;9.40;96.70;;;;;;5062977;28;20044;-71
2021/01/04 13:18:43;;;;;;;2.80;1.80;;;9.40;96.70;;;;;;5055855;28;20714;-70
2021/01/04 13:21:17;;;;;;;1.90;1.65;;;9.40;96.70;;;;;;5059774;28;20040;-71
2021/01/04 13:23:44;;;;;;;2.63;1.92;;;9.40;96.70;;;;;;5063331;28;20474;-71
2021/01/04 13:26:14;;;;;;;3.83;2.10;;;9.40;96.70;;;;;;5063226;28;20063;-71
2021/01/04 13:28:44;;;;;;;3.38;2.20;;;9.50;96.70;;;;;;5056108;28;20048;-71
2021/01/04 13:31:12;;;;;;;3.53;2.30;;;9.70;96.70;;;;;;5082387;28;20048;-71
2021/01/04 13:33:40;;;;;;;7.78;4.43;;;10.00;96.70;;;;;;5061927;28;20044;-70
2021/01/04 13:36:08;;;;;;;12.27;6.95;;;10.20;96.70;;;;;;5066200;28;20032;-72
2021/01/04 13:38:36;;;;;;;7.45;4.15;;;10.20;96.70;;;;;;5062374;28;20093;-71